createdAt,value
2022-08-17T00:00:42.580Z,13.93
2022-08-17T00:03:28.102Z,13.40
2022-08-17T00:06:22.660Z,13.82
2022-08-17T00:08:58.268Z,13.30
2022-08-17T00:11:33.924Z,14.25
2022-08-17T00:14:07.315Z,14.05
2022-08-17T00:16:55.544Z,15.25
2022-08-17T00:19:25.817Z,15.35
2022-08-17T00:22:30.857Z,16.70
2022-08-17T00:24:44.979Z,16.00
2022-08-17T00:27:12.576Z,17.58
2022-08-17T00:29:40.686Z,17.50
2022-08-17T00:33:14.542Z,17.38
2022-08-17T00:34:55.927Z,15.85
2022-08-17T00:37:27.801Z,15.40
2022-08-17T00:39:55.546Z,16.92
2022-08-17T00:42:26.403Z,15.93
2022-08-17T00:44:58.379Z,15.07
2022-08-17T00:47:28.985Z,16.00
2022-08-17T00:49:56.562Z,16.45
2022-08-17T00:52:27.773Z,16.58
2022-08-17T00:54:56.113Z,15.93
2022-08-17T00:57:26.660Z,17.20
2022-08-17T01:00:03.125Z,17.42
2022-08-17T01:02:41.248Z,15.55
2022-08-17T01:05:18.407Z,15.70
2022-08-17T01:07:47.165Z,16.15
2022-08-17T01:10:58.195Z,15.57
2022-08-17T01:13:03.120Z,16.08
2022-08-17T01:15:31.858Z,16.13
2022-08-17T01:18:00.396Z,16.42
2022-08-17T01:20:28.194Z,16.95
2022-08-17T01:22:55.922Z,15.68
2022-08-17T01:25:23.560Z,16.60
2022-08-17T01:27:51.788Z,15.25
2022-08-17T01:30:56.813Z,15.93
2022-08-17T01:33:11.546Z,16.17
2022-08-17T01:35:39.639Z,16.20
2022-08-17T01:38:07.850Z,17.17
2022-08-17T01:40:39.220Z,15.68
2022-08-17T01:43:29.873Z,15.15
2022-08-17T01:46:03.451Z,16.27
2022-08-17T01:48:35.638Z,14.98
2022-08-17T01:51:04.415Z,15.30
2022-08-17T01:53:35.494Z,15.68
2022-08-17T01:56:07.758Z,15.00
2022-08-17T01:58:36.473Z,15.52
2022-08-17T02:01:04.749Z,14.98
2022-08-17T02:03:35.747Z,16.73
2022-08-17T02:06:05.826Z,16.67
2022-08-17T02:09:01.765Z,15.73
2022-08-17T02:11:33.875Z,15.90
2022-08-17T02:14:04.046Z,17.45
2022-08-17T02:16:37.088Z,16.05
2022-08-17T02:19:09.002Z,15.50
2022-08-17T02:21:38.183Z,15.30
2022-08-17T02:24:08.024Z,16.60
2022-08-17T02:26:36.108Z,15.25
2022-08-17T02:29:04.370Z,14.85
2022-08-17T02:31:31.967Z,16.63
2022-08-17T02:34:04.005Z,15.25
2022-08-17T02:36:35.654Z,15.45
2022-08-17T02:39:04.708Z,15.82
2022-08-17T02:41:32.446Z,16.23
2022-08-17T02:44:00.291Z,16.23
2022-08-17T02:46:28.475Z,15.35
2022-08-17T02:48:56.220Z,15.48
2022-08-17T02:51:23.886Z,16.08
2022-08-17T02:53:51.607Z,14.90
2022-08-17T02:56:19.290Z,14.48
2022-08-17T02:58:46.890Z,14.98
2022-08-17T03:01:14.745Z,14.82
2022-08-17T03:03:42.416Z,15.27
2022-08-17T03:06:10.210Z,15.45
2022-08-17T03:08:38.363Z,15.15
2022-08-17T03:11:06.004Z,14.27
2022-08-17T03:13:34.229Z,15.35
2022-08-17T03:16:01.968Z,14.23
2022-08-17T03:18:29.653Z,14.38
2022-08-17T03:21:00.657Z,13.98
2022-08-17T03:23:29.725Z,14.05
2022-08-17T03:25:58.141Z,12.98
2022-08-17T03:28:25.777Z,13.50
2022-08-17T03:30:53.475Z,13.13
2022-08-17T03:33:21.348Z,13.80
2022-08-17T03:35:49.060Z,11.98
2022-08-17T03:38:17.584Z,13.45
2022-08-17T03:40:57.031Z,12.63
2022-08-17T03:43:30.895Z,12.95
2022-08-17T03:46:34.759Z,13.23
2022-08-17T03:49:23.097Z,12.18
2022-08-17T03:52:09.092Z,12.95
2022-08-17T03:54:55.517Z,12.48
2022-08-17T03:57:23.116Z,13.10
2022-08-17T03:59:51.177Z,12.52
2022-08-17T04:02:22.567Z,12.00
2022-08-17T04:04:51.171Z,11.75
2022-08-17T04:07:22.925Z,12.32
2022-08-17T04:09:50.803Z,12.43
2022-08-17T04:12:20.037Z,11.60
2022-08-17T04:14:47.826Z,11.95
2022-08-17T04:17:27.060Z,10.70
2022-08-17T04:19:54.874Z,12.18
2022-08-17T04:22:31.262Z,11.40
2022-08-17T04:25:07.636Z,11.90
2022-08-17T04:27:36.341Z,12.77
2022-08-17T04:30:04.554Z,11.68
2022-08-17T04:33:02.264Z,12.45
2022-08-17T04:35:22.789Z,12.15
2022-08-17T04:37:50.894Z,11.48
2022-08-17T04:40:37.890Z,13.02
2022-08-17T04:43:18.590Z,13.43
2022-08-17T04:45:55.302Z,11.52
2022-08-17T04:48:29.686Z,12.32
2022-08-17T04:51:10.209Z,12.82
2022-08-17T04:53:39.813Z,12.63
2022-08-17T04:56:08.118Z,13.10
2022-08-17T04:58:45.302Z,13.35
2022-08-17T05:01:13.194Z,12.50
2022-08-17T05:03:41.986Z,12.48
2022-08-17T05:06:09.662Z,13.05
2022-08-17T05:08:37.358Z,13.73
2022-08-17T05:11:05.648Z,12.98
2022-08-17T05:13:33.453Z,13.38
2022-08-17T05:16:02.599Z,12.40
2022-08-17T05:18:30.476Z,13.88
2022-08-17T05:20:58.655Z,12.77
2022-08-17T05:23:27.239Z,13.07
2022-08-17T05:26:06.251Z,13.10
2022-08-17T05:28:37.862Z,12.68
2022-08-17T05:31:05.714Z,11.88
2022-08-17T05:33:35.418Z,14.38
2022-08-17T05:36:04.033Z,13.90
2022-08-17T05:38:32.478Z,12.93
2022-08-17T05:41:01.893Z,13.88
2022-08-17T05:43:31.790Z,14.48
2022-08-17T05:46:23.809Z,13.00
2022-08-17T05:49:11.763Z,13.88
2022-08-17T05:52:08.808Z,14.32
2022-08-17T05:54:47.353Z,13.45
2022-08-17T05:57:24.632Z,14.82
2022-08-17T06:00:11.730Z,14.60
2022-08-17T06:03:00.832Z,14.98
2022-08-17T06:06:01.625Z,14.70
2022-08-17T06:11:21.021Z,15.18
2022-08-17T06:14:09.445Z,15.85
2022-08-17T06:16:41.301Z,14.50
2022-08-17T06:19:16.300Z,16.05
2022-08-17T06:21:46.642Z,15.65
2022-08-17T06:24:23.828Z,15.53
2022-08-17T06:26:51.576Z,16.10
2022-08-17T06:29:39.187Z,14.75
2022-08-17T06:32:08.707Z,15.00
2022-08-17T06:34:37.863Z,14.20
2022-08-17T06:37:21.403Z,15.23
2022-08-17T06:40:16.235Z,14.68
2022-08-17T06:43:00.851Z,14.93
2022-08-17T06:45:54.487Z,14.70
2022-08-17T06:48:26.039Z,15.90
2022-08-17T06:51:00.370Z,15.85
2022-08-17T06:53:32.345Z,15.38
2022-08-17T06:56:13.800Z,15.02
2022-08-17T06:58:43.531Z,14.07
2022-08-17T07:01:15.041Z,15.02
2022-08-17T07:04:21.958Z,13.85
2022-08-17T07:06:57.281Z,14.05
2022-08-17T07:09:28.964Z,12.63
2022-08-17T07:11:59.858Z,12.75
2022-08-17T07:14:32.096Z,12.32
2022-08-17T07:17:02.148Z,12.32
2022-08-17T07:19:32.154Z,10.68
2022-08-17T07:22:06.021Z,11.80
2022-08-17T07:24:35.702Z,11.27
2022-08-17T07:27:04.488Z,12.05
2022-08-17T07:29:40.790Z,11.07
2022-08-17T07:32:09.066Z,11.73
2022-08-17T07:35:01.637Z,9.52
2022-08-17T07:37:32.543Z,10.32
2022-08-17T07:40:16.409Z,11.60
2022-08-17T07:43:01.214Z,9.80
2022-08-17T07:45:49.241Z,8.98
2022-08-17T07:48:24.259Z,8.48
2022-08-17T07:50:53.418Z,9.02
2022-08-17T07:53:25.139Z,8.85
2022-08-17T07:55:53.409Z,9.20
2022-08-17T07:58:23.632Z,8.85
2022-08-17T08:01:11.901Z,8.73
2022-08-17T08:03:42.811Z,7.93
2022-08-17T08:06:25.097Z,8.30
2022-08-17T08:08:55.077Z,8.57
2022-08-17T08:11:31.442Z,8.55
2022-08-17T08:14:29.521Z,7.85
2022-08-17T08:17:04.139Z,7.88
2022-08-17T08:19:34.065Z,8.63
2022-08-17T08:22:08.015Z,8.45
2022-08-17T08:25:01.506Z,9.10
2022-08-17T08:27:35.747Z,8.80
2022-08-17T08:30:10.482Z,9.52
2022-08-17T08:32:46.652Z,9.63
2022-08-17T08:35:26.801Z,9.88
2022-08-17T08:38:29.445Z,10.37
2022-08-17T08:41:22.174Z,9.95
2022-08-17T08:44:10.150Z,9.65
2022-08-17T08:47:03.436Z,9.60
2022-08-17T08:50:08.881Z,9.85
2022-08-17T08:53:02.527Z,10.70
2022-08-17T08:55:52.818Z,10.73
2022-08-17T08:58:42.046Z,10.73
2022-08-17T09:01:57.642Z,10.98
2022-08-17T09:04:27.809Z,10.43
2022-08-17T09:06:58.246Z,10.68
2022-08-17T09:09:25.764Z,10.77
2022-08-17T09:12:14.562Z,11.68
2022-08-17T09:14:59.653Z,10.88
2022-08-17T09:17:47.517Z,10.82
2022-08-17T09:20:14.985Z,11.07
2022-08-17T09:25:28.514Z,10.75
2022-08-17T09:28:00.619Z,10.68
2022-08-17T09:30:36.416Z,11.73
2022-08-17T09:33:07.291Z,10.57
2022-08-17T09:36:02.732Z,9.77
2022-08-17T09:38:57.425Z,9.68
2022-08-17T09:41:49.467Z,10.85
2022-08-17T09:44:29.234Z,10.73
2022-08-17T09:47:16.121Z,10.20
2022-08-17T09:49:49.017Z,9.38
2022-08-17T09:52:26.549Z,9.57
2022-08-17T09:54:55.176Z,9.95
2022-08-17T09:57:38.990Z,8.80
2022-08-17T10:00:13.343Z,8.73
2022-08-17T10:03:18.119Z,8.88
2022-08-17T10:06:21.716Z,7.25
2022-08-17T10:09:07.525Z,7.85
2022-08-17T10:12:17.179Z,9.02
2022-08-17T10:15:09.972Z,7.75
2022-08-17T10:18:10.324Z,7.43
2022-08-17T10:20:44.144Z,8.18
2022-08-17T10:23:33.873Z,9.18
2022-08-17T10:26:24.116Z,8.32
2022-08-17T10:29:09.631Z,8.25
2022-08-17T10:32:08.803Z,8.05
2022-08-17T10:35:13.171Z,8.18
2022-08-17T10:38:00.260Z,8.60
2022-08-17T10:40:49.171Z,8.38
2022-08-17T10:43:34.933Z,8.45
2022-08-17T10:46:33.701Z,9.20
2022-08-17T10:49:36.175Z,8.98
2022-08-17T10:52:19.717Z,8.32
2022-08-17T10:54:58.101Z,9.75
2022-08-17T10:57:32.217Z,9.93
2022-08-17T11:00:35.287Z,9.88
2022-08-17T11:03:03.305Z,10.52
2022-08-17T11:05:54.265Z,9.75
2022-08-17T11:11:20.321Z,9.68
2022-08-17T11:14:14.385Z,9.38
2022-08-17T11:17:07.546Z,8.77
2022-08-17T11:20:14.268Z,8.50
2022-08-17T11:22:55.800Z,9.32
2022-08-17T11:25:42.075Z,9.70
2022-08-17T11:28:14.472Z,9.55
2022-08-17T11:30:47.074Z,9.77
2022-08-17T11:33:38.039Z,9.57
2022-08-17T11:36:34.375Z,10.00
2022-08-17T11:39:06.807Z,9.80
2022-08-17T11:42:07.540Z,9.93
2022-08-17T11:44:57.598Z,10.23
2022-08-17T11:48:09.458Z,10.00
2022-08-17T11:51:06.574Z,9.75
2022-08-17T11:53:40.091Z,10.48
2022-08-17T11:56:32.354Z,10.15
2022-08-17T11:59:00.993Z,9.98
2022-08-17T12:01:31.686Z,10.15
2022-08-17T12:04:19.927Z,7.40
2022-08-17T12:07:09.274Z,10.70
2022-08-17T12:09:39.623Z,10.20
2022-08-17T12:12:14.719Z,10.38
2022-08-17T12:15:11.407Z,10.60
2022-08-17T12:17:42.617Z,10.48
2022-08-17T12:20:24.276Z,11.48
2022-08-17T12:23:12.945Z,9.82
2022-08-17T12:25:51.788Z,9.75
2022-08-17T12:28:33.371Z,10.23
2022-08-17T12:31:04.299Z,10.40
2022-08-17T12:36:05.126Z,11.27
2022-08-17T12:38:34.876Z,10.93
2022-08-17T12:41:23.968Z,11.13
2022-08-17T12:44:03.228Z,11.13
2022-08-17T12:47:05.180Z,11.40
2022-08-17T12:49:35.749Z,12.23
2022-08-17T12:52:07.896Z,11.85
2022-08-17T12:54:47.787Z,11.90
2022-08-17T12:57:21.019Z,12.05
2022-08-17T13:00:04.410Z,11.85
2022-08-17T13:02:40.311Z,11.45
2022-08-17T13:05:17.944Z,12.27
2022-08-17T13:07:48.055Z,12.02
2022-08-17T13:10:35.643Z,11.10
2022-08-17T13:13:06.079Z,12.20
2022-08-17T13:15:54.281Z,11.77
2022-08-17T13:18:48.848Z,12.60
2022-08-17T13:21:28.294Z,13.57
2022-08-17T13:24:00.471Z,13.75
2022-08-17T13:26:51.367Z,14.52
2022-08-17T13:32:04.714Z,15.95
2022-08-17T13:35:12.454Z,14.80
2022-08-17T13:37:34.543Z,16.17
2022-08-17T13:40:08.125Z,15.57
2022-08-17T13:42:50.411Z,15.30
2022-08-17T13:45:39.615Z,15.73
2022-08-17T13:48:07.458Z,16.58
2022-08-17T13:50:40.338Z,16.00
2022-08-17T13:53:31.559Z,16.08
2022-08-17T13:56:38.849Z,16.33
2022-08-17T13:59:00.310Z,16.80
2022-08-17T14:01:52.777Z,16.25
2022-08-17T14:04:24.117Z,16.45
2022-08-17T14:06:56.459Z,16.58
2022-08-17T14:09:31.418Z,17.13
2022-08-17T14:12:03.262Z,18.10
2022-08-17T14:14:30.968Z,20.13
2022-08-17T14:16:58.602Z,18.42
2022-08-17T14:19:26.452Z,18.80
2022-08-17T14:21:59.142Z,18.77
2022-08-17T14:24:33.202Z,18.88
2022-08-17T14:27:01.424Z,20.27
2022-08-17T14:29:48.142Z,18.67
2022-08-17T14:32:23.173Z,20.23
2022-08-17T14:34:53.462Z,19.45
2022-08-17T14:37:38.442Z,20.65
2022-08-17T14:40:11.542Z,19.15
2022-08-17T14:42:40.406Z,19.52
2022-08-17T14:45:32.324Z,19.08
2022-08-17T14:47:56.815Z,14.95
2022-08-17T14:50:25.215Z,15.75
2022-08-17T14:52:56.429Z,15.82
2022-08-17T14:55:26.575Z,17.42
2022-08-17T14:57:54.154Z,18.60
2022-08-17T15:00:22.050Z,16.85
2022-08-17T15:02:54.648Z,16.52
2022-08-17T15:05:23.702Z,16.77
2022-08-17T15:07:53.611Z,16.67
2022-08-17T15:10:21.438Z,16.15
2022-08-17T15:12:49.304Z,14.07
2022-08-17T15:15:18.866Z,12.48
2022-08-17T15:17:46.597Z,11.65
2022-08-17T15:20:16.284Z,11.80
2022-08-17T15:22:44.513Z,11.50
2022-08-17T15:25:12.765Z,12.27
2022-08-17T15:27:40.603Z,11.13
2022-08-17T15:30:09.031Z,12.32
2022-08-17T15:32:38.447Z,10.85
2022-08-17T15:35:06.937Z,12.02
2022-08-17T15:37:34.787Z,10.40
2022-08-17T15:40:02.608Z,10.82
2022-08-17T15:42:30.541Z,10.95
2022-08-17T15:45:00.052Z,10.23
2022-08-17T15:47:27.848Z,10.38
2022-08-17T15:49:59.925Z,11.18
2022-08-17T15:52:29.861Z,10.85
2022-08-17T15:54:58.952Z,12.13
2022-08-17T15:57:26.990Z,12.18
2022-08-17T15:59:58.803Z,11.48
2022-08-17T16:03:15.061Z,12.20
2022-08-17T16:05:19.929Z,11.20
2022-08-17T16:07:49.193Z,11.20
2022-08-17T16:10:19.192Z,11.85
2022-08-17T16:12:48.094Z,11.70
2022-08-17T16:15:16.345Z,11.73
2022-08-17T16:17:44.459Z,12.18
2022-08-17T16:20:20.120Z,12.00
2022-08-17T16:22:49.526Z,11.60
2022-08-17T16:25:23.067Z,11.57
2022-08-17T16:28:10.785Z,12.27
2022-08-17T16:30:38.844Z,13.15
2022-08-17T16:33:06.496Z,12.98
2022-08-17T16:35:34.363Z,12.32
2022-08-17T16:38:02.909Z,12.93
2022-08-17T16:40:35.718Z,11.23
2022-08-17T16:43:07.204Z,11.60
2022-08-17T16:45:40.682Z,12.13
2022-08-17T16:48:09.589Z,12.40
2022-08-17T16:50:37.398Z,12.40
2022-08-17T16:53:09.210Z,12.20
2022-08-17T16:55:37.720Z,11.15
2022-08-17T16:58:05.797Z,12.65
2022-08-17T17:00:36.313Z,12.60
2022-08-17T17:03:19.193Z,14.07
2022-08-17T17:06:22.376Z,12.93
2022-08-17T17:09:01.025Z,13.90
2022-08-17T17:11:42.082Z,14.07
2022-08-17T17:14:11.826Z,14.85
2022-08-17T17:17:03.547Z,14.82
2022-08-17T17:19:38.469Z,14.18
2022-08-17T17:22:25.477Z,14.77
2022-08-17T17:25:18.159Z,16.27
2022-08-17T17:27:56.295Z,14.57
2022-08-17T17:30:24.894Z,15.35
2022-08-17T17:32:56.079Z,16.73
2022-08-17T17:35:34.232Z,16.88
2022-08-17T17:38:06.572Z,16.58
2022-08-17T17:40:40.564Z,17.23
2022-08-17T17:43:35.258Z,17.45
2022-08-17T17:46:38.049Z,16.57
2022-08-17T17:49:06.332Z,16.88
2022-08-17T17:52:06.888Z,17.08
2022-08-17T17:55:03.005Z,19.00
2022-08-17T17:57:47.060Z,18.55
2022-08-17T18:00:24.727Z,18.15
2022-08-17T18:03:13.356Z,17.80
2022-08-17T18:05:47.765Z,17.88
2022-08-17T18:08:34.831Z,18.42
2022-08-17T18:11:24.534Z,18.80
2022-08-17T18:14:15.576Z,18.45
2022-08-17T18:16:43.745Z,17.77
2022-08-17T18:19:15.388Z,17.30
2022-08-17T18:21:46.032Z,16.75
2022-08-17T18:24:13.957Z,16.33
2022-08-17T18:26:54.201Z,16.23
2022-08-17T18:32:22.485Z,15.48
2022-08-17T18:35:03.764Z,15.40
2022-08-17T18:37:45.268Z,15.32
2022-08-17T18:43:14.404Z,16.15
2022-08-17T18:45:46.255Z,16.35
2022-08-17T18:48:36.978Z,15.05
2022-08-17T18:51:42.060Z,16.08
2022-08-17T18:54:17.057Z,16.17
2022-08-17T18:57:00.501Z,16.50
2022-08-17T18:59:42.535Z,16.48
2022-08-17T19:02:38.756Z,17.45
2022-08-17T19:05:13.751Z,16.30
2022-08-17T19:07:44.513Z,15.93
2022-08-17T19:10:46.249Z,15.63
2022-08-17T19:13:24.184Z,16.00
2022-08-17T19:16:07.923Z,15.18
2022-08-17T19:18:48.489Z,14.77
2022-08-17T19:21:23.193Z,15.73
2022-08-17T19:24:05.757Z,15.32
2022-08-17T19:26:54.499Z,14.65
2022-08-17T19:29:30.390Z,15.15
2022-08-17T19:31:58.893Z,16.65
2022-08-17T19:34:33.184Z,15.50
2022-08-17T19:37:38.789Z,15.60
2022-08-17T19:40:51.576Z,17.08
2022-08-17T19:43:31.280Z,15.13
2022-08-17T19:46:19.351Z,50.47
2022-08-17T19:48:58.999Z,38.20
2022-08-17T19:52:05.137Z,39.10
2022-08-17T19:55:24.657Z,33.10
2022-08-17T19:58:00.857Z,36.40
2022-08-17T20:00:28.687Z,34.55
2022-08-17T20:03:16.778Z,42.53
2022-08-17T20:06:11.659Z,43.30
2022-08-17T20:08:43.877Z,44.97
2022-08-17T20:11:17.513Z,37.78
2022-08-17T20:14:09.730Z,36.83
2022-08-17T20:16:37.366Z,28.17
2022-08-17T20:19:27.886Z,25.92
2022-08-17T20:22:15.670Z,29.45
2022-08-17T20:25:08.569Z,23.27
2022-08-17T20:27:51.191Z,23.63
2022-08-17T20:30:39.200Z,20.35
2022-08-17T20:33:33.069Z,20.52
2022-08-17T20:36:20.713Z,19.27
2022-08-17T20:38:48.329Z,20.95
2022-08-17T20:41:23.592Z,20.25
2022-08-17T20:43:57.296Z,21.05
2022-08-17T20:46:37.596Z,20.45
2022-08-17T20:49:14.638Z,21.30
2022-08-17T20:52:00.778Z,18.95
2022-08-17T20:54:42.095Z,20.80
2022-08-17T20:57:14.033Z,20.02
2022-08-17T20:59:42.511Z,20.98
2022-08-17T21:02:19.544Z,22.25
2022-08-17T21:04:50.123Z,21.02
2022-08-17T21:07:33.149Z,21.45
2022-08-17T21:10:26.366Z,22.25
2022-08-17T21:13:13.800Z,23.73
2022-08-17T21:15:52.568Z,25.05
2022-08-17T21:18:46.711Z,21.70
2022-08-17T21:21:30.388Z,24.23
2022-08-17T21:24:07.231Z,24.40
2022-08-17T21:26:50.762Z,24.85
2022-08-17T21:29:32.286Z,23.83
2022-08-17T21:32:05.405Z,23.58
2022-08-17T21:34:34.456Z,21.92
2022-08-17T21:37:20.590Z,23.70
2022-08-17T21:40:19.905Z,22.92
2022-08-17T21:42:54.124Z,23.77
2022-08-17T21:45:35.248Z,22.75
2022-08-17T21:48:14.520Z,25.90
2022-08-17T21:50:57.345Z,22.83
2022-08-17T21:53:34.073Z,22.60
2022-08-17T21:56:01.841Z,24.17
2022-08-17T21:58:35.061Z,25.23
2022-08-17T22:01:23.841Z,23.38
2022-08-17T22:03:56.538Z,23.88
2022-08-17T22:06:34.569Z,27.15
2022-08-17T22:09:07.348Z,26.58
2022-08-17T22:11:52.726Z,25.00
2022-08-17T22:14:22.939Z,26.25
2022-08-17T22:17:18.423Z,25.75
2022-08-17T22:19:59.118Z,28.73
2022-08-17T22:22:55.862Z,31.45
2022-08-17T22:25:24.423Z,52.13
2022-08-17T22:27:55.666Z,27.63
2022-08-17T22:30:42.219Z,27.75
2022-08-17T22:33:28.940Z,36.35
2022-08-17T22:36:23.202Z,30.48
2022-08-17T22:38:55.873Z,33.40
2022-08-17T22:41:35.839Z,34.35
2022-08-17T22:44:17.391Z,30.48
2022-08-17T22:47:11.591Z,32.53
2022-08-17T22:49:54.027Z,30.85
2022-08-17T22:53:13.688Z,32.00
2022-08-17T22:56:10.005Z,31.65
2022-08-17T22:59:09.701Z,32.13
2022-08-17T23:01:39.251Z,32.83
2022-08-17T23:04:10.132Z,30.90
2022-08-17T23:06:40.260Z,32.05
2022-08-17T23:09:07.974Z,31.45
2022-08-17T23:11:48.908Z,33.47
2022-08-17T23:14:19.339Z,34.42
2022-08-17T23:16:48.838Z,32.28
2022-08-17T23:19:18.771Z,32.08
2022-08-17T23:21:46.959Z,32.15
2022-08-17T23:24:25.989Z,32.13
2022-08-17T23:26:54.572Z,32.35
2022-08-17T23:29:22.702Z,34.03
2022-08-17T23:31:51.228Z,38.63
2022-08-17T23:34:19.158Z,38.45
2022-08-17T23:36:52.402Z,34.15
2022-08-17T23:39:27.395Z,30.45
2022-08-17T23:41:59.812Z,31.88
2022-08-17T23:44:27.869Z,32.95
2022-08-17T23:46:55.583Z,31.77
2022-08-17T23:49:25.328Z,35.40
2022-08-17T23:51:55.944Z,36.92
2022-08-17T23:54:23.518Z,36.40
2022-08-17T23:56:51.315Z,33.45
2022-08-17T23:59:19.864Z,33.42
